Aviation Digital Data Service (ADDS)

Output produced by METARs form (1645 UTC 30 March 2017)
found at http://aviationweather.gov/adds/metars/
 
KEKN 301436Z 3015/3112 15008G15KT P6SM BKN100 
     FM301600 17011G19KT P6SM BKN060 
     FM310800 17010G17KT P6SM SHRA OVC040